createdAt,value
2023-06-22T00:00:23.655Z,6.87
2023-06-22T00:01:26.673Z,7.40
2023-06-22T00:02:29.814Z,6.97
2023-06-22T00:03:32.864Z,7.27
2023-06-22T00:04:35.852Z,6.87
2023-06-22T00:05:38.834Z,6.90
2023-06-22T00:06:42.555Z,6.60
2023-06-22T00:07:45.543Z,7.30
2023-06-22T00:08:48.767Z,6.57
2023-06-22T00:09:51.757Z,6.65
2023-06-22T00:10:54.751Z,7.08
2023-06-22T00:11:57.741Z,6.67
2023-06-22T00:13:00.716Z,6.90
2023-06-22T00:14:04.786Z,6.75
2023-06-22T00:15:08.107Z,6.87
2023-06-22T00:16:11.092Z,6.60
2023-06-22T00:17:14.060Z,6.70
2023-06-22T00:18:17.037Z,6.27
2023-06-22T00:19:20.554Z,6.65
2023-06-22T00:20:29.303Z,6.65
2023-06-22T00:21:32.604Z,6.58
2023-06-22T00:22:39.762Z,6.95
2023-06-22T00:23:42.788Z,7.05
2023-06-22T00:24:45.765Z,7.23
2023-06-22T00:25:48.753Z,6.27
2023-06-22T00:26:51.731Z,6.53
2023-06-22T00:27:54.717Z,6.73
2023-06-22T00:28:57.685Z,6.97
2023-06-22T00:30:01.090Z,6.78
2023-06-22T00:31:04.075Z,6.82
2023-06-22T00:32:07.394Z,6.98
2023-06-22T00:33:10.509Z,7.13
2023-06-22T00:34:13.478Z,7.27
2023-06-22T00:35:16.629Z,7.92
2023-06-22T00:36:20.259Z,7.65
2023-06-22T00:37:26.874Z,7.55
2023-06-22T00:38:30.169Z,7.65
2023-06-22T00:39:34.808Z,7.23
2023-06-22T00:40:38.314Z,6.83
2023-06-22T00:41:41.275Z,7.27
2023-06-22T00:42:44.240Z,7.37
2023-06-22T00:43:47.290Z,7.13
2023-06-22T00:44:50.272Z,6.97
2023-06-22T00:45:53.561Z,7.25
2023-06-22T00:46:56.553Z,7.50
2023-06-22T00:48:00.844Z,8.08
2023-06-22T00:49:06.472Z,7.50
2023-06-22T00:50:11.098Z,7.10
2023-06-22T00:51:14.246Z,7.05
2023-06-22T00:52:21.827Z,7.52
2023-06-22T00:53:24.915Z,7.77
2023-06-22T00:54:29.505Z,7.43
2023-06-22T00:55:32.477Z,7.17
2023-06-22T00:56:38.716Z,7.32
2023-06-22T00:57:42.189Z,7.75
2023-06-22T00:58:45.160Z,7.70
2023-06-22T00:59:49.768Z,7.35
2023-06-22T01:00:53.197Z,7.42
2023-06-22T01:01:56.396Z,7.23
2023-06-22T01:02:59.863Z,7.32
2023-06-22T01:04:03.177Z,7.10
2023-06-22T01:05:07.686Z,6.80
2023-06-22T01:06:20.730Z,7.67
2023-06-22T01:07:58.585Z,8.05
2023-06-22T01:09:17.106Z,8.00
2023-06-22T01:11:09.134Z,7.35
2023-06-22T01:12:13.182Z,7.75
2023-06-22T01:13:36.694Z,7.50
2023-06-22T01:14:49.018Z,8.23
2023-06-22T01:15:57.939Z,7.63
2023-06-22T01:17:02.721Z,7.50
2023-06-22T01:18:07.016Z,7.40
2023-06-22T01:19:56.844Z,7.60
2023-06-22T01:21:03.693Z,7.52
2023-06-22T01:22:13.621Z,7.32
2023-06-22T01:23:38.164Z,7.63
2023-06-22T01:28:18.827Z,8.42
2023-06-22T01:29:23.656Z,7.32
2023-06-22T01:30:27.934Z,7.85
2023-06-22T01:31:33.190Z,8.07
2023-06-22T01:32:39.947Z,8.08
2023-06-22T01:33:48.092Z,7.20
2023-06-22T01:34:52.098Z,7.27
2023-06-22T01:35:55.189Z,7.50
2023-06-22T01:37:00.283Z,7.65
2023-06-22T01:38:03.996Z,7.23
2023-06-22T01:39:08.592Z,7.08
2023-06-22T01:40:12.126Z,7.68
2023-06-22T01:41:16.276Z,7.40
2023-06-22T01:42:19.303Z,7.48
2023-06-22T01:43:24.336Z,7.63
2023-06-22T01:44:28.070Z,7.48
2023-06-22T01:45:31.705Z,7.65
2023-06-22T01:46:39.704Z,7.35
2023-06-22T01:47:43.482Z,7.20
2023-06-22T01:48:47.733Z,6.78
2023-06-22T01:49:52.811Z,6.95
2023-06-22T01:50:56.380Z,7.78
2023-06-22T01:51:59.859Z,7.37
2023-06-22T01:53:02.837Z,7.55
2023-06-22T01:54:08.677Z,7.30
2023-06-22T01:55:11.669Z,7.87
2023-06-22T01:56:16.903Z,8.27
2023-06-22T01:57:20.113Z,7.97
2023-06-22T01:58:28.523Z,7.77
2023-06-22T01:59:41.551Z,7.87
2023-06-22T02:00:52.701Z,7.67
2023-06-22T02:02:09.366Z,8.40
2023-06-22T02:03:20.885Z,7.45
2023-06-22T02:04:37.579Z,7.80
2023-06-22T02:05:51.711Z,7.63
2023-06-22T02:07:01.139Z,7.85
2023-06-22T02:08:17.862Z,7.97
2023-06-22T02:09:23.836Z,7.65
2023-06-22T02:10:29.638Z,7.62
2023-06-22T02:11:34.970Z,7.55
2023-06-22T02:12:38.779Z,8.05
2023-06-22T02:13:44.244Z,7.77
2023-06-22T02:14:48.547Z,7.75
2023-06-22T02:15:52.235Z,7.53
2023-06-22T02:16:55.588Z,7.62
2023-06-22T02:17:58.729Z,8.05
2023-06-22T02:19:07.454Z,7.98
2023-06-22T02:20:14.910Z,7.88
2023-06-22T02:21:21.769Z,7.78
2023-06-22T02:22:25.058Z,7.93
2023-06-22T02:23:28.040Z,8.10
2023-06-22T02:24:33.181Z,8.25
2023-06-22T02:25:37.180Z,8.03
2023-06-22T02:26:43.587Z,7.78
2023-06-22T02:27:46.953Z,7.83
2023-06-22T02:28:49.947Z,8.17
2023-06-22T02:29:53.001Z,8.62
2023-06-22T02:30:55.999Z,8.43
2023-06-22T02:31:59.377Z,8.05
2023-06-22T02:33:02.439Z,8.12
2023-06-22T02:34:05.845Z,7.88
2023-06-22T02:35:09.759Z,7.68
2023-06-22T02:36:14.269Z,7.82
2023-06-22T02:37:17.417Z,8.02
2023-06-22T02:38:20.996Z,8.25
2023-06-22T02:39:25.999Z,8.28
2023-06-22T02:40:32.925Z,8.33
2023-06-22T02:41:36.123Z,7.68
2023-06-22T02:42:40.902Z,8.13
2023-06-22T02:43:43.876Z,8.42
2023-06-22T02:44:46.878Z,8.03
2023-06-22T02:45:49.885Z,8.05
2023-06-22T02:46:52.933Z,8.53
2023-06-22T02:47:57.091Z,8.22
2023-06-22T02:49:00.156Z,8.62
2023-06-22T02:50:03.307Z,8.25
2023-06-22T02:51:06.574Z,8.07
2023-06-22T02:52:09.626Z,8.78
2023-06-22T02:53:12.600Z,8.22
2023-06-22T02:54:15.682Z,8.88
2023-06-22T02:55:18.908Z,8.90
2023-06-22T02:56:26.124Z,8.70
2023-06-22T02:57:29.169Z,8.60
2023-06-22T02:58:39.397Z,8.68
2023-06-22T02:59:43.144Z,8.57
2023-06-22T03:00:46.173Z,8.62
2023-06-22T03:01:50.087Z,8.33
2023-06-22T03:02:53.329Z,7.95
2023-06-22T03:03:56.504Z,8.35
2023-06-22T03:04:59.531Z,8.68
2023-06-22T03:06:02.519Z,8.30
2023-06-22T03:07:05.979Z,8.23
2023-06-22T03:08:10.549Z,8.15
2023-06-22T03:09:13.541Z,8.30
2023-06-22T03:10:17.176Z,8.43
2023-06-22T03:11:20.157Z,8.67
2023-06-22T03:12:23.165Z,8.20
2023-06-22T03:13:26.140Z,8.73
2023-06-22T03:14:29.133Z,8.55
2023-06-22T03:15:32.634Z,8.07
2023-06-22T03:16:35.914Z,8.13
2023-06-22T03:17:40.789Z,8.23
2023-06-22T03:18:43.951Z,8.40
2023-06-22T03:19:46.964Z,7.65
2023-06-22T03:20:50.199Z,7.55
2023-06-22T03:21:53.216Z,7.98
2023-06-22T03:22:56.186Z,7.73
2023-06-22T03:23:59.171Z,8.03
2023-06-22T03:25:02.151Z,8.30
2023-06-22T03:26:05.727Z,7.82
2023-06-22T03:27:08.783Z,8.15
2023-06-22T03:28:12.077Z,8.40
2023-06-22T03:29:15.059Z,8.33
2023-06-22T03:30:18.246Z,8.27
2023-06-22T03:31:23.015Z,8.27
2023-06-22T03:32:29.126Z,8.32
2023-06-22T03:33:32.147Z,8.35
2023-06-22T03:34:37.166Z,8.25
2023-06-22T03:35:40.236Z,8.13
2023-06-22T03:36:43.917Z,8.17
2023-06-22T03:37:46.895Z,8.42
2023-06-22T03:38:51.716Z,8.43
2023-06-22T03:39:55.167Z,8.62
2023-06-22T03:40:58.783Z,8.23
2023-06-22T03:42:01.809Z,8.47
2023-06-22T03:43:04.929Z,8.62
2023-06-22T03:44:07.961Z,8.40
2023-06-22T03:45:11.958Z,8.13
2023-06-22T03:46:15.004Z,8.27
2023-06-22T03:47:19.194Z,8.62
2023-06-22T03:48:22.201Z,8.32
2023-06-22T03:49:25.183Z,8.30
2023-06-22T03:50:29.037Z,7.82
2023-06-22T03:51:33.829Z,7.87
2023-06-22T03:52:37.042Z,8.48
2023-06-22T03:53:40.023Z,8.35
2023-06-22T03:54:43.018Z,8.03
2023-06-22T03:55:53.770Z,7.72
2023-06-22T03:56:58.585Z,7.82
2023-06-22T03:58:06.680Z,7.93
2023-06-22T03:59:09.750Z,8.82
2023-06-22T04:00:13.768Z,8.92
2023-06-22T04:01:18.250Z,8.13
2023-06-22T04:02:21.260Z,7.83
2023-06-22T04:03:24.522Z,7.75
2023-06-22T04:04:27.714Z,8.15
2023-06-22T04:05:30.770Z,8.17
2023-06-22T04:06:35.123Z,7.82
2023-06-22T04:07:38.325Z,7.68
2023-06-22T04:08:42.069Z,8.20
2023-06-22T04:09:45.334Z,7.87
2023-06-22T04:10:48.329Z,7.90
2023-06-22T04:11:51.330Z,8.25
2023-06-22T04:12:55.122Z,8.57
2023-06-22T04:13:58.138Z,8.17
2023-06-22T04:15:01.232Z,8.35
2023-06-22T04:16:05.156Z,8.03
2023-06-22T04:17:08.174Z,7.98
2023-06-22T04:18:11.174Z,8.22
2023-06-22T04:19:15.312Z,8.65
2023-06-22T04:20:18.296Z,8.27
2023-06-22T04:21:21.315Z,8.92
2023-06-22T04:22:24.303Z,8.22
2023-06-22T04:23:27.287Z,8.07
2023-06-22T04:24:30.261Z,8.30
2023-06-22T04:25:33.253Z,8.58
2023-06-22T04:26:38.455Z,8.58
2023-06-22T04:27:41.491Z,8.25
2023-06-22T04:28:44.482Z,7.88
2023-06-22T04:29:50.152Z,7.53
2023-06-22T04:30:53.255Z,7.68
2023-06-22T04:31:59.371Z,7.18
2023-06-22T04:33:02.472Z,7.82
2023-06-22T04:34:07.658Z,6.98
2023-06-22T04:35:11.073Z,7.35
2023-06-22T04:36:14.582Z,7.55
2023-06-22T04:37:17.564Z,8.12
2023-06-22T04:38:22.763Z,7.48
2023-06-22T04:39:25.945Z,7.02
2023-06-22T04:40:29.111Z,7.90
2023-06-22T04:41:42.939Z,7.62
2023-06-22T04:42:54.187Z,7.65
2023-06-22T04:44:01.101Z,7.33
2023-06-22T04:45:05.878Z,7.30
2023-06-22T04:46:08.873Z,7.37
2023-06-22T04:47:11.859Z,7.42
2023-06-22T04:48:17.133Z,7.27
2023-06-22T04:49:23.628Z,6.85
2023-06-22T04:50:26.783Z,7.25
2023-06-22T04:51:31.820Z,7.95
2023-06-22T04:52:34.814Z,7.28
2023-06-22T04:53:37.770Z,7.27
2023-06-22T04:54:49.336Z,6.63
2023-06-22T04:55:54.306Z,7.23
2023-06-22T04:57:00.028Z,7.33
2023-06-22T04:58:06.089Z,7.22
2023-06-22T04:59:09.525Z,7.32
2023-06-22T05:00:14.022Z,7.18
2023-06-22T05:01:17.345Z,6.80
2023-06-22T05:02:20.352Z,7.42
2023-06-22T05:03:23.530Z,6.90
2023-06-22T05:04:29.375Z,7.33
2023-06-22T05:05:32.473Z,6.85
2023-06-22T05:06:35.577Z,7.10
2023-06-22T05:07:38.599Z,6.77
2023-06-22T05:08:41.922Z,7.37
2023-06-22T05:09:44.915Z,7.73
2023-06-22T05:11:03.274Z,7.55
2023-06-22T05:12:11.196Z,7.43
2023-06-22T05:13:14.625Z,7.27
2023-06-22T05:14:17.751Z,7.35
2023-06-22T05:15:20.743Z,7.05
2023-06-22T05:16:25.574Z,6.80
2023-06-22T05:17:28.871Z,7.25
2023-06-22T05:18:32.713Z,7.08
2023-06-22T05:19:36.095Z,7.18
2023-06-22T05:20:39.468Z,6.98
2023-06-22T05:21:42.464Z,7.13
2023-06-22T05:22:45.442Z,7.58
2023-06-22T05:23:48.462Z,7.75
2023-06-22T05:24:51.459Z,7.17
2023-06-22T05:25:56.166Z,7.62
2023-06-22T05:26:59.217Z,7.70
2023-06-22T05:28:02.354Z,7.73
2023-06-22T05:29:05.890Z,7.40
2023-06-22T05:30:10.216Z,7.08
2023-06-22T05:31:17.500Z,7.70
2023-06-22T05:32:20.950Z,7.32
2023-06-22T05:33:23.946Z,7.77
2023-06-22T05:34:27.184Z,12.45
2023-06-22T05:35:30.627Z,75.92
2023-06-22T05:36:33.628Z,45.03
2023-06-22T05:37:36.633Z,40.13
2023-06-22T05:38:40.397Z,26.78
2023-06-22T05:39:43.396Z,11.80
2023-06-22T05:40:46.403Z,8.93
2023-06-22T05:41:49.384Z,8.23
2023-06-22T05:42:52.377Z,7.92
2023-06-22T05:43:55.376Z,7.13
2023-06-22T05:45:00.001Z,7.15
2023-06-22T05:46:04.954Z,6.85
2023-06-22T05:47:08.022Z,7.65
2023-06-22T05:48:11.025Z,7.88
2023-06-22T05:49:15.201Z,7.63
2023-06-22T05:50:18.186Z,7.07
2023-06-22T05:51:21.164Z,6.62
2023-06-22T05:52:24.131Z,6.90
2023-06-22T05:53:27.184Z,6.70
2023-06-22T05:54:30.250Z,7.00
2023-06-22T05:55:35.600Z,7.22
2023-06-22T05:56:38.899Z,7.38
2023-06-22T05:57:41.906Z,7.33
2023-06-22T05:58:44.912Z,7.07
2023-06-22T05:59:47.911Z,6.82
2023-06-22T06:00:50.920Z,7.25
2023-06-22T06:01:54.174Z,7.17
2023-06-22T06:02:57.882Z,7.02
2023-06-22T06:04:00.981Z,7.08
2023-06-22T06:05:04.457Z,6.70
2023-06-22T06:06:07.613Z,6.68
2023-06-22T06:07:10.586Z,6.70
2023-06-22T06:08:13.965Z,7.20
2023-06-22T06:09:16.951Z,7.47
2023-06-22T06:10:19.947Z,7.32
2023-06-22T06:11:23.973Z,7.25
2023-06-22T06:12:26.950Z,7.67
2023-06-22T06:13:29.999Z,7.33
2023-06-22T06:14:33.026Z,7.33
2023-06-22T06:15:36.449Z,7.22
2023-06-22T06:16:39.458Z,7.18
2023-06-22T06:17:49.632Z,7.15
2023-06-22T06:18:54.575Z,7.45
2023-06-22T06:19:57.697Z,7.12
2023-06-22T06:21:00.707Z,6.78
2023-06-22T06:22:04.043Z,7.23
2023-06-22T06:23:07.027Z,6.82
2023-06-22T06:24:10.027Z,6.83
2023-06-22T06:25:17.121Z,6.47
2023-06-22T06:26:28.995Z,6.42
2023-06-22T06:27:32.148Z,6.30
2023-06-22T06:28:36.785Z,6.47
2023-06-22T06:29:39.776Z,6.45
2023-06-22T06:30:43.538Z,6.60
2023-06-22T06:31:46.708Z,6.95
2023-06-22T06:32:51.500Z,6.65
2023-06-22T06:33:55.194Z,6.97
2023-06-22T06:34:58.169Z,6.40
2023-06-22T06:36:03.295Z,6.30
2023-06-22T06:37:06.282Z,6.70
2023-06-22T06:38:09.313Z,6.72
2023-06-22T06:39:12.421Z,6.68
2023-06-22T06:40:18.384Z,7.12
2023-06-22T06:41:22.200Z,7.82
2023-06-22T06:42:25.507Z,7.93
2023-06-22T06:43:28.553Z,7.37
2023-06-22T06:44:31.560Z,7.03
2023-06-22T06:45:35.874Z,6.77
2023-06-22T06:46:39.231Z,6.88
2023-06-22T06:47:42.251Z,6.72
2023-06-22T06:48:45.264Z,6.77
2023-06-22T06:49:48.240Z,6.30
2023-06-22T06:50:51.332Z,6.35
2023-06-22T06:51:54.334Z,6.32
2023-06-22T06:53:00.382Z,6.75
2023-06-22T06:54:04.374Z,6.42
2023-06-22T06:55:15.183Z,6.73
2023-06-22T06:56:18.456Z,6.97
2023-06-22T06:57:21.553Z,6.40
2023-06-22T06:58:24.541Z,6.28
2023-06-22T06:59:27.514Z,6.72
2023-06-22T07:00:30.648Z,6.40
2023-06-22T07:01:35.110Z,6.25
2023-06-22T07:02:43.996Z,6.28
2023-06-22T07:03:47.083Z,5.78
2023-06-22T07:04:50.389Z,6.08
2023-06-22T07:05:53.365Z,6.05
2023-06-22T07:06:56.330Z,5.82
2023-06-22T07:07:59.333Z,5.62
2023-06-22T07:09:02.339Z,6.03
2023-06-22T07:10:07.396Z,5.40
2023-06-22T07:11:10.538Z,5.97
2023-06-22T07:12:13.621Z,5.67
2023-06-22T07:13:16.726Z,5.58
2023-06-22T07:14:19.717Z,5.45
2023-06-22T07:15:22.718Z,4.93
2023-06-22T07:16:26.843Z,4.52
2023-06-22T07:17:30.508Z,4.52
2023-06-22T07:18:33.549Z,4.47
2023-06-22T07:19:36.522Z,4.62
2023-06-22T07:20:40.602Z,4.42
2023-06-22T07:21:43.720Z,4.60
2023-06-22T07:22:46.889Z,4.12
2023-06-22T07:23:49.897Z,4.58
2023-06-22T07:24:52.903Z,4.38
2023-06-22T07:25:55.901Z,4.62
2023-06-22T07:27:00.221Z,4.40
2023-06-22T07:28:06.154Z,4.55
2023-06-22T07:29:09.291Z,4.58
2023-06-22T07:30:13.589Z,4.60
2023-06-22T07:31:16.628Z,4.63
2023-06-22T07:32:19.684Z,4.23
2023-06-22T07:33:22.660Z,4.62
2023-06-22T07:34:25.660Z,4.23
2023-06-22T07:35:29.582Z,4.68
2023-06-22T07:36:32.602Z,4.83
2023-06-22T07:37:36.363Z,3.95
2023-06-22T07:38:39.466Z,4.42
2023-06-22T07:39:43.588Z,4.72
2023-06-22T07:40:46.936Z,4.50
2023-06-22T07:41:49.924Z,4.58
2023-06-22T07:42:53.573Z,4.32
2023-06-22T07:43:56.587Z,4.57
2023-06-22T07:44:59.748Z,4.62
2023-06-22T07:46:02.774Z,4.32
2023-06-22T07:47:05.779Z,4.50
2023-06-22T07:48:08.967Z,4.72
2023-06-22T07:49:11.959Z,4.58
2023-06-22T07:50:14.959Z,4.73
2023-06-22T07:51:17.958Z,4.58
2023-06-22T07:52:20.949Z,4.90
2023-06-22T07:53:24.431Z,4.47
2023-06-22T07:54:27.417Z,4.57
2023-06-22T07:55:30.573Z,4.55
2023-06-22T07:56:34.296Z,4.53
2023-06-22T07:57:37.449Z,4.35
2023-06-22T07:58:41.219Z,4.65
2023-06-22T07:59:44.197Z,4.58
2023-06-22T08:00:47.809Z,4.92
2023-06-22T08:01:50.902Z,4.42
2023-06-22T08:02:54.009Z,4.75
2023-06-22T08:03:57.218Z,4.47
2023-06-22T08:05:10.357Z,4.27
2023-06-22T08:06:13.874Z,4.18
2023-06-22T08:07:16.948Z,4.47
2023-06-22T08:08:19.929Z,3.93
2023-06-22T08:09:23.060Z,4.08
2023-06-22T08:10:26.998Z,4.00
2023-06-22T08:11:29.982Z,4.18
2023-06-22T08:12:33.332Z,3.97
2023-06-22T08:13:36.409Z,4.45
2023-06-22T08:14:40.216Z,4.23
2023-06-22T08:15:43.189Z,3.60
2023-06-22T08:16:46.156Z,3.70
2023-06-22T08:17:49.451Z,3.48
2023-06-22T08:18:52.472Z,3.82
2023-06-22T08:19:55.457Z,3.60
2023-06-22T08:20:58.481Z,3.52
2023-06-22T08:22:01.828Z,3.83
2023-06-22T08:23:07.578Z,3.95
2023-06-22T08:24:10.730Z,3.87
2023-06-22T08:25:14.514Z,3.93
2023-06-22T08:26:17.634Z,3.85
2023-06-22T08:27:22.586Z,3.77
2023-06-22T08:28:25.569Z,4.07
2023-06-22T08:29:28.575Z,3.93
2023-06-22T08:30:31.811Z,3.80
2023-06-22T08:31:35.500Z,3.88
2023-06-22T08:32:38.666Z,3.68
2023-06-22T08:33:48.982Z,3.72
2023-06-22T08:34:52.358Z,4.37
2023-06-22T08:35:59.643Z,4.10
2023-06-22T08:37:02.695Z,4.02
2023-06-22T08:38:05.717Z,3.77
2023-06-22T08:39:09.367Z,4.43
2023-06-22T08:40:12.833Z,4.17
2023-06-22T08:41:15.845Z,4.15
2023-06-22T08:42:18.892Z,4.35
2023-06-22T08:43:21.889Z,4.22
2023-06-22T08:44:25.100Z,4.33
2023-06-22T08:45:29.542Z,4.38
2023-06-22T08:46:34.646Z,4.57
2023-06-22T08:47:37.720Z,4.65
2023-06-22T08:48:40.883Z,4.37
2023-06-22T08:49:43.885Z,4.75
2023-06-22T08:50:46.957Z,4.77
2023-06-22T08:51:50.696Z,5.08
2023-06-22T08:52:53.718Z,5.02
2023-06-22T08:53:56.687Z,5.20
2023-06-22T08:54:59.942Z,5.32
2023-06-22T08:56:02.975Z,5.78
2023-06-22T08:57:06.378Z,6.58
2023-06-22T08:58:09.378Z,7.07
2023-06-22T08:59:12.369Z,6.98
2023-06-22T09:00:21.122Z,7.10
2023-06-22T09:01:24.217Z,6.70
2023-06-22T09:02:31.999Z,6.62
2023-06-22T09:03:37.926Z,7.45
2023-06-22T09:04:41.284Z,7.73
2023-06-22T09:05:44.532Z,6.78
2023-06-22T09:06:47.552Z,6.25
2023-06-22T09:07:50.534Z,6.27
2023-06-22T09:08:53.606Z,6.55
2023-06-22T09:09:57.776Z,6.70
2023-06-22T09:11:00.744Z,7.18
2023-06-22T09:12:03.834Z,6.95
2023-06-22T09:13:06.815Z,6.87
2023-06-22T09:14:11.877Z,7.27
2023-06-22T09:15:17.518Z,7.37
2023-06-22T09:16:21.631Z,6.45
2023-06-22T09:17:24.671Z,6.70
2023-06-22T09:18:27.691Z,7.42
2023-06-22T09:19:30.682Z,7.27
2023-06-22T09:20:33.673Z,7.35
2023-06-22T09:21:36.856Z,7.42
2023-06-22T09:22:39.839Z,7.33
2023-06-22T09:23:42.956Z,7.03
2023-06-22T09:24:45.948Z,7.48
2023-06-22T09:25:49.061Z,7.80
2023-06-22T09:26:52.058Z,6.92
2023-06-22T09:27:55.227Z,7.65
2023-06-22T09:28:59.049Z,7.80
2023-06-22T09:30:02.320Z,7.60
2023-06-22T09:31:05.392Z,8.13
2023-06-22T09:32:08.934Z,8.18
2023-06-22T09:33:12.220Z,8.17
2023-06-22T09:34:15.247Z,8.53
2023-06-22T09:35:18.242Z,8.52
2023-06-22T09:36:22.618Z,8.80
2023-06-22T09:37:25.608Z,8.72
2023-06-22T09:38:28.601Z,8.18
2023-06-22T09:39:31.647Z,7.92
2023-06-22T09:40:41.013Z,8.65
2023-06-22T09:41:44.041Z,8.43
2023-06-22T09:42:47.204Z,7.65
2023-06-22T09:43:50.221Z,8.37
2023-06-22T09:44:53.193Z,8.18
2023-06-22T09:45:56.210Z,8.82
2023-06-22T09:46:59.214Z,8.50
2023-06-22T09:48:02.196Z,8.63
2023-06-22T09:49:05.214Z,9.07
2023-06-22T09:50:08.745Z,8.33
2023-06-22T09:51:11.736Z,9.73
2023-06-22T09:52:14.796Z,9.58
2023-06-22T09:53:17.815Z,10.23
2023-06-22T09:54:20.808Z,9.78
2023-06-22T09:55:24.148Z,9.55
2023-06-22T09:56:29.967Z,9.72
2023-06-22T09:57:33.092Z,9.28
2023-06-22T09:58:36.079Z,9.10
2023-06-22T09:59:41.083Z,9.32
2023-06-22T10:00:44.077Z,9.42
2023-06-22T10:01:47.064Z,9.60
2023-06-22T10:02:50.228Z,9.38
2023-06-22T10:03:57.941Z,9.82
2023-06-22T10:05:01.252Z,9.82
2023-06-22T10:06:04.705Z,9.98
2023-06-22T10:07:07.715Z,9.73
2023-06-22T10:08:11.305Z,9.95
2023-06-22T10:09:14.307Z,10.20
2023-06-22T10:10:17.477Z,10.18
2023-06-22T10:11:20.541Z,10.63
2023-06-22T10:12:23.522Z,10.12
2023-06-22T10:13:26.514Z,9.62
2023-06-22T10:14:30.848Z,10.27
2023-06-22T10:15:33.835Z,10.82
2023-06-22T10:16:38.278Z,11.03
2023-06-22T10:17:41.480Z,11.62
2023-06-22T10:18:44.518Z,10.45
2023-06-22T10:19:47.505Z,10.62
2023-06-22T10:20:54.751Z,10.37
2023-06-22T10:21:57.795Z,10.65
2023-06-22T10:23:00.855Z,10.55
2023-06-22T10:24:07.505Z,10.50
2023-06-22T10:25:14.064Z,9.80
2023-06-22T10:26:17.062Z,9.98
2023-06-22T10:27:20.143Z,9.23
2023-06-22T10:28:23.157Z,9.63
2023-06-22T10:29:26.146Z,10.22
2023-06-22T10:30:30.263Z,9.65
2023-06-22T10:31:33.320Z,10.12
2023-06-22T10:32:38.459Z,9.17
2023-06-22T10:33:42.735Z,9.30
2023-06-22T10:34:45.732Z,8.90
2023-06-22T10:35:48.735Z,9.02
2023-06-22T10:36:51.733Z,9.67
2023-06-22T10:37:56.258Z,10.18
2023-06-22T10:39:00.774Z,10.27
2023-06-22T10:40:05.291Z,10.95
2023-06-22T10:41:08.318Z,10.25
2023-06-22T10:42:11.321Z,10.90
2023-06-22T10:43:14.311Z,10.38
2023-06-22T10:44:18.694Z,10.60
2023-06-22T10:45:21.730Z,10.92
2023-06-22T10:46:27.223Z,10.82
2023-06-22T10:47:30.252Z,11.00
2023-06-22T10:48:33.270Z,11.17
2023-06-22T10:49:37.488Z,11.30
2023-06-22T10:50:40.500Z,11.52
2023-06-22T10:51:43.512Z,10.93
2023-06-22T10:52:46.513Z,10.68
2023-06-22T10:53:49.522Z,10.58
2023-06-22T10:54:53.619Z,10.83
2023-06-22T10:55:57.708Z,11.18
2023-06-22T10:57:01.842Z,10.55
2023-06-22T10:58:06.290Z,11.47
2023-06-22T10:59:10.651Z,11.68
2023-06-22T11:00:15.193Z,11.08
2023-06-22T11:01:34.402Z,11.03
2023-06-22T11:02:39.269Z,11.10
2023-06-22T11:03:42.323Z,10.95
2023-06-22T11:04:45.501Z,11.23
2023-06-22T11:05:49.228Z,12.32
2023-06-22T11:06:52.574Z,11.18
2023-06-22T11:07:55.799Z,10.93
2023-06-22T11:09:04.568Z,11.08
2023-06-22T11:10:15.280Z,11.67
2023-06-22T11:11:20.957Z,12.13
2023-06-22T11:12:24.031Z,11.37
2023-06-22T11:13:27.067Z,11.97
2023-06-22T11:14:30.081Z,11.93
2023-06-22T11:15:33.081Z,11.28
2023-06-22T11:16:36.155Z,11.62
2023-06-22T11:17:39.276Z,12.10
2023-06-22T11:18:42.308Z,11.53
2023-06-22T11:19:46.605Z,11.63
2023-06-22T11:20:52.149Z,10.85
2023-06-22T11:21:55.845Z,10.87
2023-06-22T11:22:58.893Z,11.17
2023-06-22T11:24:01.961Z,10.90
2023-06-22T11:25:05.381Z,12.22
2023-06-22T11:26:08.395Z,12.78
2023-06-22T11:27:11.420Z,11.57
2023-06-22T11:28:15.322Z,12.35
2023-06-22T11:29:31.904Z,12.78
2023-06-22T11:30:39.437Z,12.60
2023-06-22T11:31:43.997Z,12.62
2023-06-22T11:32:47.060Z,13.12
2023-06-22T11:33:50.136Z,12.38
2023-06-22T11:34:53.135Z,12.45
2023-06-22T11:35:57.629Z,12.00
2023-06-22T11:37:00.621Z,12.07
2023-06-22T11:38:05.129Z,12.08
2023-06-22T11:39:10.982Z,11.55
2023-06-22T11:40:14.423Z,12.30
2023-06-22T11:41:17.685Z,13.12
2023-06-22T11:42:20.708Z,12.57
2023-06-22T11:43:23.744Z,12.22
2023-06-22T11:44:26.733Z,12.87
2023-06-22T11:45:29.875Z,13.05
2023-06-22T11:46:34.353Z,12.65
2023-06-22T11:47:37.775Z,12.95
2023-06-22T11:48:40.819Z,12.72
2023-06-22T11:49:45.132Z,12.50
2023-06-22T11:50:48.129Z,12.30
2023-06-22T11:51:51.150Z,12.17
2023-06-22T11:52:54.188Z,12.43
2023-06-22T11:53:57.163Z,13.03
2023-06-22T11:55:00.641Z,12.20
2023-06-22T11:56:03.696Z,12.20
2023-06-22T11:57:06.783Z,12.38
2023-06-22T11:58:09.793Z,12.42
2023-06-22T11:59:12.797Z,12.40
2023-06-22T12:00:18.980Z,12.35
2023-06-22T12:01:22.447Z,12.42
2023-06-22T12:02:25.475Z,12.13
2023-06-22T12:03:28.625Z,12.87
2023-06-22T12:04:31.657Z,12.12
2023-06-22T12:05:34.651Z,12.32
2023-06-22T12:06:42.573Z,11.92
2023-06-22T12:07:45.590Z,12.53
2023-06-22T12:08:48.789Z,12.58
2023-06-22T12:09:52.058Z,12.32
2023-06-22T12:10:55.348Z,12.25
2023-06-22T12:11:58.416Z,13.28
2023-06-22T12:13:01.698Z,12.67
2023-06-22T12:14:05.681Z,11.85
2023-06-22T12:15:11.318Z,12.78
2023-06-22T12:16:14.327Z,12.27
2023-06-22T12:17:17.313Z,12.55
2023-06-22T12:18:22.476Z,12.95
2023-06-22T12:19:25.506Z,13.08
2023-06-22T12:20:28.788Z,12.70
2023-06-22T12:21:32.316Z,12.85
2023-06-22T12:22:35.952Z,12.62
2023-06-22T12:23:38.951Z,13.02
2023-06-22T12:24:41.941Z,13.22
2023-06-22T12:25:46.565Z,13.15
2023-06-22T12:26:50.048Z,12.88
2023-06-22T12:27:53.102Z,12.53
2023-06-22T12:28:56.156Z,12.13
2023-06-22T12:29:59.166Z,12.28
2023-06-22T12:31:02.173Z,12.15
2023-06-22T12:32:05.816Z,11.92
2023-06-22T12:33:09.216Z,11.85
2023-06-22T12:34:12.221Z,12.68
2023-06-22T12:35:15.510Z,12.12
2023-06-22T12:36:18.569Z,11.72
2023-06-22T12:37:21.589Z,12.08
2023-06-22T12:38:26.644Z,11.82
2023-06-22T12:39:29.638Z,12.18
2023-06-22T12:40:34.454Z,12.80
2023-06-22T12:41:37.516Z,12.38
2023-06-22T12:42:40.978Z,12.85
2023-06-22T12:43:43.990Z,12.28
2023-06-22T12:44:47.023Z,11.65
2023-06-22T12:45:50.181Z,12.02
2023-06-22T12:46:53.280Z,12.28
2023-06-22T12:47:56.557Z,12.20
2023-06-22T12:49:01.305Z,12.88
2023-06-22T12:50:04.928Z,12.95
2023-06-22T12:51:07.921Z,12.77
2023-06-22T12:52:12.444Z,12.53
2023-06-22T12:53:15.515Z,12.12
2023-06-22T12:54:18.598Z,12.23
2023-06-22T12:55:21.631Z,12.27
2023-06-22T12:56:24.624Z,11.78
2023-06-22T12:57:27.636Z,12.55
2023-06-22T12:58:30.699Z,11.77
2023-06-22T12:59:33.707Z,12.03
2023-06-22T13:00:36.790Z,13.05
2023-06-22T13:01:39.852Z,12.65
2023-06-22T13:02:43.754Z,11.80
2023-06-22T13:03:46.878Z,11.57
2023-06-22T13:04:49.868Z,11.75
2023-06-22T13:05:52.866Z,12.13
2023-06-22T13:06:56.584Z,12.22
2023-06-22T13:08:00.976Z,12.45
2023-06-22T13:10:12.161Z,13.02
2023-06-22T13:11:15.192Z,12.93
2023-06-22T13:12:18.257Z,12.87
2023-06-22T13:13:21.265Z,12.25
2023-06-22T13:14:24.347Z,11.97
2023-06-22T13:15:29.729Z,12.03
2023-06-22T13:16:33.153Z,12.42
2023-06-22T13:17:36.214Z,13.35
2023-06-22T13:18:39.245Z,12.28
2023-06-22T13:19:42.893Z,11.77
2023-06-22T13:20:46.643Z,12.58
2023-06-22T13:21:49.646Z,12.53
2023-06-22T13:22:52.697Z,11.63
2023-06-22T13:23:55.791Z,12.43
2023-06-22T13:25:01.546Z,12.47
2023-06-22T13:26:04.590Z,12.38
2023-06-22T13:27:07.597Z,12.50
2023-06-22T13:28:16.190Z,11.87
2023-06-22T13:29:30.560Z,11.35
2023-06-22T13:30:33.657Z,12.23
2023-06-22T13:31:36.710Z,12.77
2023-06-22T13:32:42.803Z,11.75
2023-06-22T13:33:48.904Z,12.72
2023-06-22T13:34:53.815Z,11.93
2023-06-22T13:35:56.817Z,12.30
2023-06-22T13:36:59.812Z,11.88
2023-06-22T13:38:02.916Z,11.42
2023-06-22T13:39:05.948Z,11.85
2023-06-22T13:40:09.933Z,10.98
2023-06-22T13:41:12.952Z,11.45
2023-06-22T13:42:15.945Z,11.47
2023-06-22T13:43:18.960Z,11.75
2023-06-22T13:44:23.349Z,12.35
2023-06-22T13:45:26.478Z,11.58
2023-06-22T13:46:29.808Z,12.02
2023-06-22T13:47:32.955Z,11.88
2023-06-22T13:48:35.984Z,11.68
2023-06-22T13:49:39.008Z,12.00
2023-06-22T13:50:42.050Z,12.25
2023-06-22T13:51:45.048Z,11.63
2023-06-22T13:52:48.158Z,11.23
2023-06-22T13:53:51.146Z,11.65
2023-06-22T13:54:54.226Z,11.50
2023-06-22T13:55:57.942Z,11.05
2023-06-22T13:57:00.943Z,11.15
2023-06-22T13:58:03.954Z,10.88
2023-06-22T13:59:09.125Z,10.93
2023-06-22T14:00:15.798Z,11.25
2023-06-22T14:01:18.803Z,11.72
2023-06-22T14:02:21.862Z,11.12
2023-06-22T14:03:25.087Z,11.30
2023-06-22T14:04:29.964Z,11.17
2023-06-22T14:05:33.085Z,10.43
2023-06-22T14:06:36.190Z,10.47
2023-06-22T14:07:39.241Z,10.82
2023-06-22T14:08:42.551Z,11.18
2023-06-22T14:09:45.635Z,10.98
2023-06-22T14:10:48.717Z,11.43
2023-06-22T14:11:51.774Z,11.17